Bookmark and Share
Track history (hours):
 

Sitc Xiamen

Last reported at 2014-Apr-16 08:27 UTC. Time now 2014-Apr-17 18:29 UTC.
Position N 34°34' E 134°51'.

; draft 6.8 m.

Type: Ship (hazmat cat A). MMSI: 355090000.

NotesDate/timePositionNaut miles runAvg speedWind from/ knotsBaromVisibWave heightAir tempDewpointWater temp
2014-Apr-16 08:27N 34°34' E 134°51'1314.3
2014-Apr-16 07:34N 34°36' E 135°06'7 6.2
2014-Apr-16 06:23N 34°40' E 135°14'0 0.1
2014-Apr-16 05:29N 34°40' E 135°14'0 0.0
2014-Apr-16 04:29N 34°40' E 135°14'0 0.0
2014-Apr-16 03:29N 34°40' E 135°14'0 0.0
2014-Apr-16 02:29N 34°40' E 135°14'0 0.0
2014-Apr-16 01:23N 34°40' E 135°14'0 0.0
2014-Apr-16 00:23N 34°40' E 135°14'0 0.0
2014-Apr-15 23:17N 34°40' E 135°14'0 0.5
2014-Apr-15 22:33N 34°40' E 135°14'3 2.3
2014-Apr-15 21:22N 34°37' E 135°13'0 0.0
2014-Apr-15 20:28N 34°37' E 135°13'0 0.0
2014-Apr-15 19:28N 34°37' E 135°13'0 0.0
2014-Apr-15 18:16N 34°37' E 135°13'0 0.0
2014-Apr-15 17:28N 34°37' E 135°13'0 0.1
2014-Apr-15 16:22N 34°37' E 135°13'1 0.9
2014-Apr-15 15:33N 34°36' E 135°14'1413.7
2014-Apr-15 14:33N 34°24' E 135°05'15 7.3
2014-Apr-15 12:34N 34°11' E 134°60'222 8.2
2014-Apr-14 09:30N 34°54' E 139°24'1516.5
2014-Apr-14 08:34N 35°04' E 139°39'1413.8
2014-Apr-14 07:34N 35°17' E 139°45'1211.9
2014-Apr-14 06:34N 35°28' E 139°49'9 8.8
2014-Apr-14 05:33N 35°37' E 139°46'1 0.2
2014-Apr-13 22:33N 35°36' E 139°47'8 8.1
2014-Apr-13 21:34N 35°28' E 139°51'1211.9
2014-Apr-13 20:34N 35°18' E 139°45'1211.7
2014-Apr-13 19:33N 35°06' E 139°44'1414.2
2014-Apr-13 18:34N 34°57' E 139°30'  
2014-Apr-10 19:23N 31°05' E 123°37'2015.5
2014-Apr-10 18:05N 31°06' E 123°14'816.0
2014-Apr-10 17:34N 31°06' E 123°04'1715.6
2014-Apr-10 16:29N 31°06' E 122°45'1516.0
2014-Apr-10 15:33N 31°06' E 122°27'1413.5
2014-Apr-10 14:33N 31°10' E 122°12'1414.3
2014-Apr-10 13:33N 31°15' E 121°57'1413.4
2014-Apr-10 12:32N 31°20' E 121°42'2 2.3
2014-Apr-10 11:31N 31°20' E 121°39'0 0.0
2014-Apr-10 10:25N 31°20' E 121°39'0 0.0
2014-Apr-10 09:04N 31°20' E 121°39'0 0.0
2014-Apr-10 07:22N 31°20' E 121°39'0 0.0
2014-Apr-10 06:04N 31°20' E 121°39'0 0.0
2014-Apr-10 03:28N 31°20' E 121°39'0 0.0
2014-Apr-10 02:22N 31°20' E 121°39'0 0.0
2014-Apr-10 01:15N 31°20' E 121°39'0 0.5
2014-Apr-10 00:33N 31°21' E 121°39'6 5.8
2014-Apr-09 23:33N 31°18' E 121°45'1111.2
2014-Apr-09 22:33N 31°15' E 121°58'20 9.0
2014-Apr-09 20:22N 31°06' E 122°19'7 8.2
2014-Apr-09 19:33N 31°06' E 122°26'1210.4
2014-Apr-09 18:25N 31°08' E 122°40'  

Dump ship's entire track history

sailing weather and tide predictions

Sitc Xiamen — 3ELU — position and weather